Time;durP1;ratioP1;P1;durP2;ratioP2;P2;SDS_P1;SDS_P2;PMS_P1;PMS_P2;Temp;Humidity;BMP_temperature;BMP_pressure;BME280_temperature;BME280_humidity;BME280_pressure;Samples;Min_cycle;Max_cycle;Signal;HPM_P1;HPM_P2
2022/03/28 00:01:33;;;;;;;19.97;10.73;;;;;;;10.12;53.73;100384.69;5035518;28;20238;-87
2022/03/28 00:03:58;;;;;;;22.80;10.77;;;;;;;8.93;53.76;100189.41;5037369;28;20165;-86
2022/03/28 00:06:24;;;;;;;22.97;11.43;;;;;;;7.54;53.50;99959.38;5038358;28;20683;-87
2022/03/28 00:08:50;;;;;;;24.00;11.13;;;;;;;10.05;53.37;100368.28;5054747;28;20172;-87
2022/03/28 00:11:16;;;;;;;24.93;10.53;;;;;;;10.12;53.85;100375.47;5054680;28;20217;-87
2022/03/28 00:13:43;;;;;;;23.53;10.30;;;;;;;9.62;53.35;100263.63;5036880;28;20193;-87
2022/03/28 00:16:08;;;;;;;23.13;9.80;;;;;;;8.24;53.27;100049.59;5053478;28;20181;-88
2022/03/28 00:18:34;;;;;;;24.47;10.60;;;;;;;9.39;53.95;100287.47;5039127;28;20213;-87
2022/03/28 00:20:59;;;;;;;22.10;10.40;;;;;;;8.36;54.20;100089.84;5073363;28;20180;-88
2022/03/28 00:23:25;;;;;;;21.70;9.97;;;;;;;9.90;54.64;100380.88;5056343;28;20169;-88
2022/03/28 00:25:50;;;;;;;22.07;10.87;;;;;;;8.81;54.89;100198.75;5056110;28;20180;-87
2022/03/28 00:28:16;;;;;;;22.10;10.57;;;;;;;9.58;55.76;100383.06;5054087;28;20629;-88
2022/03/28 00:30:42;;;;;;;21.07;10.00;;;;;;;9.60;56.18;100383.13;5035816;28;20173;-88
2022/03/28 00:33:08;;;;;;;18.10;10.13;;;;;;;7.82;56.79;100103.16;5034775;28;20165;-88
2022/03/28 00:35:35;;;;;;;22.90;9.97;;;;;;;7.91;57.60;100148.28;5035093;28;20656;-88
2022/03/28 00:38:02;;;;;;;22.13;10.23;;;;;;;9.15;58.17;100416.44;5055693;28;20146;-88
2022/03/28 00:40:28;;;;;;;20.70;10.00;;;;;;;7.44;58.59;100102.28;5056363;28;20154;-86
2022/03/28 00:42:54;;;;;;;20.40;10.20;;;;;;;8.99;59.82;100394.34;5072932;28;20180;-86
2022/03/28 00:45:20;;;;;;;19.93;10.30;;;;;;;7.34;59.79;100122.56;5039943;28;20162;-88
2022/03/28 00:47:46;;;;;;;17.90;9.97;;;;;;;8.60;59.57;100313.47;5050812;28;20177;-89
2022/03/28 00:50:11;;;;;;;17.47;9.80;;;;;;;9.08;60.25;100391.56;5035898;28;20157;-88
2022/03/28 00:52:38;;;;;;;20.27;10.20;;;;;;;9.09;60.12;100406.78;5056616;28;20805;-87
2022/03/28 00:55:05;;;;;;;18.73;10.50;;;;;;;8.87;62.12;100391.91;5037584;28;20189;-89
2022/03/28 00:57:31;;;;;;;19.80;10.20;;;;;;;8.79;63.23;100390.50;5037045;28;20214;-88
2022/03/28 00:59:58;;;;;;;19.97;10.17;;;;;;;8.28;63.45;100337.44;5054941;28;20166;-87
2022/03/28 01:02:24;;;;;;;21.07;10.57;;;;;;;8.11;63.40;100301.72;5058815;28;20255;-89
2022/03/28 01:04:50;;;;;;;18.47;9.90;;;;;;;8.51;63.83;100386.06;5054510;28;20400;-87
2022/03/28 01:07:17;;;;;;;20.13;10.40;;;;;;;6.95;63.21;100093.06;5036092;28;20161;-87
2022/03/28 01:09:44;;;;;;;21.90;10.50;;;;;;;6.84;62.98;100051.19;5036071;28;20597;-87
2022/03/28 01:12:10;;;;;;;19.47;10.77;;;;;;;8.66;63.86;100359.31;5036709;28;20157;-88
2022/03/28 01:14:36;;;;;;;22.63;10.90;;;;;;;7.15;63.57;100133.03;5037288;28;20165;-87
2022/03/28 01:19:53;;;;;;;17.97;9.80;;;;;;;8.08;66.11;100329.25;5054912;28;20173;-88
2022/03/28 01:22:19;;;;;;;23.10;11.50;;;;;;;8.52;66.50;100393.72;5037190;28;20193;-89
2022/03/28 01:24:46;;;;;;;20.67;10.97;;;;;;;7.82;67.34;100294.72;5036809;28;20165;-87
2022/03/28 01:27:12;;;;;;;20.37;10.67;;;;;;;6.79;67.74;100148.97;5054492;28;20157;-87
2022/03/28 01:29:37;;;;;;;26.50;11.73;;;;;;;8.43;67.94;100400.69;5076259;28;20424;-87
2022/03/28 01:32:03;;;;;;;26.17;11.37;;;;;;;8.07;68.78;100345.19;5058706;28;21161;-86
2022/03/28 01:34:29;;;;;;;23.23;11.60;;;;;;;7.97;69.50;100337.72;5057769;28;20161;-88
2022/03/28 01:36:54;;;;;;;23.27;11.13;;;;;;;8.26;69.37;100396.09;5038286;28;20431;-89
2022/03/28 01:39:20;;;;;;;22.67;12.07;;;;;;;6.39;70.29;100117.63;5055240;28;20605;-88
2022/03/28 01:41:46;;;;;;;29.23;13.90;;;;;;;8.17;70.88;100408.06;5054097;28;20243;-88
2022/03/28 01:44:12;;;;;;;28.57;14.10;;;;;;;6.44;70.74;100136.44;5037623;28;20256;-88
2022/03/28 01:46:47;;;;;;;28.23;13.73;;;;;;;8.08;71.90;100404.91;5055489;28;20483;-88
2022/03/28 01:49:18;;;;;;;29.70;14.60;;;;;;;6.65;71.14;100133.69;5037823;28;20403;-88
2022/03/28 01:51:44;;;;;;;30.20;14.40;;;;;;;8.15;71.63;100397.91;5055097;28;20445;-90
2022/03/28 01:54:09;;;;;;;23.30;13.70;;;;;;;4.89;71.67;99851.28;5054042;28;20435;-87
2022/03/28 01:56:36;;;;;;;28.07;12.23;;;;;;;7.72;71.97;100336.03;5036281;28;20431;-88
2022/03/28 01:59:02;;;;;;;25.73;13.53;;;;;;;5.36;72.93;99944.28;5053854;28;20157;-87
2022/03/28 02:01:28;;;;;;;22.70;12.80;;;;;;;7.99;73.23;100420.31;5035456;28;20474;-90
2022/03/28 02:03:53;;;;;;;25.13;12.87;;;;;;;5.94;73.72;100044.81;5036476;28;20920;-87
2022/03/28 02:06:19;;;;;;;23.87;12.53;;;;;;;6.42;74.09;100135.47;5055247;28;20168;-88
2022/03/28 02:08:44;;;;;;;27.67;12.87;;;;;;;7.19;75.43;100295.28;5058751;28;20701;-88
2022/03/28 02:11:10;;;;;;;24.77;12.70;;;;;;;4.10;75.41;99760.19;5037267;28;20189;-87
2022/03/28 02:13:35;;;;;;;24.57;13.33;;;;;;;5.86;75.07;100075.19;5053517;28;20168;-87
2022/03/28 02:16:01;;;;;;;23.60;12.60;;;;;;;6.07;76.15;100118.59;5053336;28;20614;-87
2022/03/28 02:18:27;;;;;;;22.13;12.93;;;;;;;6.24;78.56;100189.44;5047030;28;20225;-86
2022/03/28 02:20:53;;;;;;;28.37;13.47;;;;;;;6.11;77.93;100144.06;5060534;28;20189;-87
2022/03/28 02:23:19;;;;;;;28.63;14.07;;;;;;;7.70;79.06;100417.34;5051867;28;20837;-87
2022/03/28 02:25:44;;;;;;;27.20;13.90;;;;;;;6.30;79.40;100182.34;5062938;28;20180;-88
2022/03/28 02:28:11;;;;;;;33.33;13.90;;;;;;;4.90;79.75;99956.72;5036681;28;20427;-87
2022/03/28 02:30:37;;;;;;;23.20;12.70;;;;;;;6.81;80.70;100279.97;5037943;28;20169;-89
2022/03/28 02:33:02;;;;;;;28.50;13.63;;;;;;;5.28;80.58;100050.78;5055589;28;20454;-88
2022/03/28 02:35:28;;;;;;;27.67;12.83;;;;;;;6.45;81.86;100258.03;5053489;28;20179;-91
2022/03/28 02:37:53;;;;;;;31.83;13.40;;;;;;;6.45;81.93;100276.53;5035312;28;20169;-89
2022/03/28 02:40:19;;;;;;;28.23;14.40;;;;;;;5.93;82.82;100193.00;5036540;28;20161;-88
2022/03/28 02:42:44;;;;;;;30.77;13.50;;;;;;;5.85;83.48;100191.53;5063109;28;20185;-87
2022/03/28 02:45:10;;;;;;;28.33;14.23;;;;;;;6.70;83.18;100321.06;5063285;28;20671;-89
2022/03/28 02:47:36;;;;;;;29.37;14.80;;;;;;;5.00;82.95;100005.97;5038852;28;20641;-89
2022/03/28 02:50:02;;;;;;;34.83;15.27;;;;;;;6.50;83.76;100276.84;5037522;28;20490;-89
2022/03/28 02:52:27;;;;;;;31.93;15.80;;;;;;;6.61;84.88;100320.41;5054162;28;20171;-89
2022/03/28 02:54:53;;;;;;;32.37;15.37;;;;;;;3.29;85.88;99744.78;5053596;28;20794;-89
2022/03/28 02:57:18;;;;;;;29.10;15.53;;;;;;;5.45;85.61;100113.94;5053221;28;20173;-89
2022/03/28 02:59:44;;;;;;;31.03;14.73;;;;;;;4.78;86.42;99997.59;5036984;28;20177;-88
2022/03/28 03:02:10;;;;;;;33.57;14.67;;;;;;;6.23;86.35;100253.06;5036415;28;20208;-88
2022/03/28 03:04:36;;;;;;;33.57;15.17;;;;;;;5.86;86.91;100213.38;5036746;28;20171;-89
2022/03/28 03:07:01;;;;;;;30.63;15.60;;;;;;;6.53;87.17;100308.13;5043322;28;20204;-88
2022/03/28 03:09:27;;;;;;;37.00;15.67;;;;;;;6.50;86.81;100297.84;5069639;28;20186;-87
2022/03/28 03:11:53;;;;;;;28.13;14.17;;;;;;;7.02;87.05;100390.63;5069813;28;20260;-89
2022/03/28 03:14:18;;;;;;;28.73;13.23;;;;;;;4.57;87.51;99987.69;5039665;28;20177;-86
2022/03/28 03:16:44;;;;;;;34.27;14.90;;;;;;;5.27;87.46;100111.78;5036139;28;20176;-89
2022/03/28 03:19:10;;;;;;;33.10;14.30;;;;;;;4.43;88.28;99979.84;5054200;28;20558;-89
2022/03/28 03:21:36;;;;;;;28.50;14.13;;;;;;;5.15;88.20;100132.56;5036935;28;20665;-89
2022/03/28 03:24:02;;;;;;;26.87;13.80;;;;;;;4.22;87.54;99940.63;5052200;28;20194;-89
2022/03/28 03:26:28;;;;;;;30.77;13.13;;;;;;;5.45;87.15;100144.06;5034171;28;20869;-89
2022/03/28 03:28:58;;;;;;;30.10;13.70;;;;;;;5.28;87.35;100141.16;5034284;28;20408;-89
2022/03/28 03:31:24;;;;;;;28.20;13.10;;;;;;;6.84;88.00;100446.28;5054524;28;20169;-88
2022/03/28 03:33:49;;;;;;;26.57;13.47;;;;;;;5.58;88.05;100237.13;5053348;28;20462;-87
2022/03/28 03:36:15;;;;;;;30.67;13.53;;;;;;;4.08;87.31;99997.19;5053506;28;20415;-88
2022/03/28 03:38:40;;;;;;;30.00;13.53;;;;;;;4.82;87.37;100114.94;5034958;28;20172;-88
2022/03/28 03:41:07;;;;;;;24.67;11.87;;;;;;;7.00;87.43;100484.41;5034722;28;20176;-88
2022/03/28 03:43:33;;;;;;;24.17;12.17;;;;;;;5.78;84.97;100254.59;5052649;28;20252;-89
2022/03/28 03:45:58;;;;;;;22.93;12.83;;;;;;;4.43;86.15;100042.50;5050050;28;20421;-88
2022/03/28 03:48:25;;;;;;;27.73;12.40;;;;;;;4.44;85.25;100019.22;5051971;28;20252;-87
2022/03/28 03:50:51;;;;;;;27.90;12.50;;;;;;;5.55;84.94;100229.38;5052275;28;20541;-88
2022/03/28 03:53:17;;;;;;;30.83;12.87;;;;;;;4.97;85.02;100126.16;5034827;28;20416;-89
2022/03/28 03:55:42;;;;;;;32.73;13.43;;;;;;;4.10;84.24;99951.44;5054221;28;20169;-88
2022/03/28 03:58:08;;;;;;;27.93;12.63;;;;;;;5.81;84.77;100273.31;5057493;28;20179;-86
2022/03/28 04:00:33;;;;;;;26.93;12.87;;;;;;;4.68;84.56;100056.19;5074995;28;20175;-87
2022/03/28 04:02:58;;;;;;;31.90;14.47;;;;;;;5.12;84.42;100148.28;5037819;28;20196;-88
2022/03/28 04:05:24;;;;;;;27.80;13.20;;;;;;;5.05;84.98;100157.72;5051950;28;20235;-88
2022/03/28 04:07:49;;;;;;;29.00;12.80;;;;;;;4.07;83.17;99962.84;5051683;28;20227;-88
2022/03/28 04:10:15;;;;;;;24.67;13.60;;;;;;;4.04;83.55;99986.03;5052929;28;20165;-87
2022/03/28 04:12:40;;;;;;;28.60;14.13;;;;;;;4.74;83.59;100096.78;5050463;28;20185;-89
2022/03/28 04:15:07;;;;;;;32.60;14.43;;;;;;;4.93;83.96;100175.22;5051045;28;20168;-88
2022/03/28 04:17:39;;;;;;;31.07;13.30;;;;;;;6.50;84.16;100428.66;5051133;28;20228;-88
2022/03/28 04:20:05;;;;;;;27.83;13.17;;;;;;;7.16;82.90;100530.13;5050497;28;20400;-88
2022/03/28 04:22:31;;;;;;;28.60;12.40;;;;;;;5.02;82.31;100134.91;5051603;28;20462;-89
2022/03/28 04:24:56;;;;;;;24.60;12.50;;;;;;;7.31;81.35;100546.34;5052817;28;20400;-89
2022/03/28 04:27:22;;;;;;;29.60;16.70;;;;;;;3.63;80.22;99901.81;5057279;28;20173;-89
2022/03/28 04:29:47;;;;;;;29.90;13.50;;;;;;;7.31;80.55;100517.75;5041453;28;20588;-89
2022/03/28 04:32:12;;;;;;;28.70;13.60;;;;;;;4.55;80.64;100059.41;5055746;28;20287;-89
2022/03/28 04:34:38;;;;;;;24.23;13.70;;;;;;;7.03;80.37;100497.22;5055338;28;20223;-89
2022/03/28 04:37:04;;;;;;;25.80;12.53;;;;;;;5.56;79.38;100243.69;5055902;28;20153;-89
2022/03/28 04:39:29;;;;;;;28.80;13.07;;;;;;;6.33;79.29;100338.47;5055042;28;20613;-88
2022/03/28 04:41:55;;;;;;;32.67;14.10;;;;;;;5.42;78.57;100191.53;5051381;28;20985;-86
2022/03/28 04:44:20;;;;;;;25.63;13.77;;;;;;;6.03;79.38;100298.44;5032705;28;20692;-86
2022/03/28 04:46:46;;;;;;;28.27;13.67;;;;;;;6.80;79.03;100436.72;5055628;28;20261;-85
2022/03/28 04:49:14;;;;;;;31.37;13.30;;;;;;;7.17;77.96;100491.56;5056451;28;20212;-86
2022/03/28 04:51:40;;;;;;;28.90;14.60;;;;;;;7.20;77.18;100489.28;5053121;28;20587;-86
2022/03/28 04:54:05;;;;;;;27.17;14.77;;;;;;;6.83;77.20;100419.34;5034077;28;20936;-85
2022/03/28 04:56:30;;;;;;;34.20;15.53;;;;;;;6.73;76.44;100397.63;5035368;28;20184;-86
2022/03/28 04:58:56;;;;;;;31.83;13.47;;;;;;;7.81;75.75;100575.28;5056943;28;20472;-84
2022/03/28 05:01:21;;;;;;;29.47;13.73;;;;;;;7.66;75.50;100556.53;5052490;28;20185;-84
2022/03/28 05:03:47;;;;;;;26.53;13.40;;;;;;;6.57;75.28;100329.34;5043418;28;20166;-85
2022/03/28 05:06:12;;;;;;;26.77;13.23;;;;;;;6.40;73.95;100302.94;5054790;28;20581;-86
2022/03/28 05:08:38;;;;;;;27.67;14.97;;;;;;;5.51;74.07;100152.94;5060477;28;20187;-85
2022/03/28 05:11:03;;;;;;;28.53;13.57;;;;;;;6.91;73.34;100378.00;5056027;28;20176;-85
2022/03/28 05:13:29;;;;;;;32.27;13.13;;;;;;;5.83;73.76;100216.50;5053610;28;20181;-85
2022/03/28 05:15:56;;;;;;;32.77;14.57;;;;;;;6.81;73.28;100360.47;5036699;28;20177;-84
2022/03/28 05:18:21;;;;;;;27.30;13.30;;;;;;;7.18;71.48;100406.81;5049751;28;20744;-86
2022/03/28 05:20:46;;;;;;;30.17;12.70;;;;;;;7.04;71.90;100385.69;5035962;28;20443;-84
2022/03/28 05:23:12;;;;;;;32.23;14.50;;;;;;;6.60;72.78;100313.59;5036465;28;20200;-86
2022/03/28 05:25:38;;;;;;;28.50;13.00;;;;;;;8.19;70.85;100594.06;5040030;28;20231;-86
2022/03/28 05:28:05;;;;;;;30.07;13.90;;;;;;;6.72;70.65;100304.44;5054600;28;20264;-84
2022/03/28 05:30:30;;;;;;;29.67;13.87;;;;;;;5.75;70.77;100141.31;5054324;28;20565;-85
2022/03/28 05:32:55;;;;;;;32.00;13.67;;;;;;;6.48;70.00;100253.22;5036849;28;20423;-86
2022/03/28 05:35:21;;;;;;;31.07;14.30;;;;;;;5.97;70.28;100201.59;5057277;28;20206;-86
2022/03/28 05:37:46;;;;;;;31.73;13.17;;;;;;;6.36;70.76;100258.22;5043773;28;20189;-86
2022/03/28 05:40:13;;;;;;;30.27;13.50;;;;;;;7.31;69.40;100379.22;5058798;28;20238;-86
2022/03/28 05:42:39;;;;;;;29.03;12.73;;;;;;;6.14;68.52;100173.56;5054334;28;20689;-85
2022/03/28 05:45:05;;;;;;;33.67;13.13;;;;;;;8.75;68.01;100584.63;5054241;28;20926;-86
2022/03/28 05:47:30;;;;;;;31.97;13.87;;;;;;;8.25;67.96;100497.78;5036117;28;20424;-86
2022/03/28 05:49:56;;;;;;;36.90;14.43;;;;;;;8.92;66.80;100588.31;5053563;28;20165;-86
2022/03/28 05:52:21;;;;;;;27.63;13.17;;;;;;;8.88;66.59;100578.00;5053842;28;20244;-86
2022/03/28 05:54:46;;;;;;;34.10;15.07;;;;;;;8.93;66.26;100577.44;5053309;28;20166;-87
2022/03/28 05:57:12;;;;;;;36.07;16.30;;;;;;;8.23;66.33;100484.19;5053640;28;20189;-86
2022/03/28 05:59:37;;;;;;;37.33;18.60;;;;;;;8.00;65.51;100418.63;5053437;28;20175;-86
2022/03/28 06:02:04;;;;;;;37.47;18.17;;;;;;;7.83;65.01;100378.78;5053266;28;20312;-85
2022/03/28 06:04:30;;;;;;;31.40;16.47;;;;;;;7.80;63.38;100321.44;5043881;28;20243;-86
2022/03/28 06:06:55;;;;;;;33.33;16.37;;;;;;;7.19;62.30;100187.88;5054043;28;20404;-84
2022/03/28 06:09:21;;;;;;;37.63;15.83;;;;;;;7.36;61.55;100205.00;5049100;28;20264;-85
2022/03/28 06:11:46;;;;;;;38.00;17.77;;;;;;;7.02;60.69;100141.41;5052766;28;20177;-85
2022/03/28 06:14:12;;;;;;;32.13;17.87;;;;;;;9.02;60.04;100444.19;5051990;28;20189;-85
2022/03/28 06:16:37;;;;;;;37.70;18.33;;;;;;;8.33;59.86;100320.09;5052912;28;20161;-85
2022/03/28 06:19:03;;;;;;;34.20;16.47;;;;;;;9.15;59.50;100429.06;5035194;28;20180;-84
2022/03/28 06:21:30;;;;;;;30.97;13.70;;;;;;;8.79;59.14;100377.00;5053877;28;20177;-84
2022/03/28 06:23:57;;;;;;;31.40;13.93;;;;;;;10.03;59.00;100579.81;5046356;28;20169;-84
2022/03/28 06:26:23;;;;;;;29.00;13.43;;;;;;;10.31;58.11;100585.91;5072816;28;20158;-83
2022/03/28 06:28:49;;;;;;;25.03;11.90;;;;;;;10.48;57.37;100580.25;5053199;28;20166;-84
2022/03/28 06:31:15;;;;;;;29.87;13.20;;;;;;;10.25;57.37;100544.13;5052996;28;20223;-84
2022/03/28 06:33:41;;;;;;;34.53;14.60;;;;;;;10.53;56.86;100589.00;5052634;28;20158;-85
2022/03/28 06:36:07;;;;;;;34.73;13.83;;;;;;;10.06;56.70;100478.81;5035525;28;20170;-86
2022/03/28 06:38:32;;;;;;;31.27;12.90;;;;;;;10.45;55.50;100518.41;5052809;28;20165;-84
2022/03/28 06:40:58;;;;;;;32.03;13.40;;;;;;;8.00;55.61;100094.25;5052447;28;20606;-85
2022/03/28 06:43:23;;;;;;;29.17;13.33;;;;;;;9.68;55.15;100389.53;5034654;28;20217;-85
2022/03/28 06:45:50;;;;;;;25.40;12.40;;;;;;;10.23;54.83;100483.31;5051459;28;20180;-84
2022/03/28 06:48:16;;;;;;;22.10;12.37;;;;;;;8.26;55.83;100187.63;5052021;28;20176;-85
2022/03/28 06:50:41;;;;;;;25.10;12.60;;;;;;;9.36;55.50;100334.44;5052321;28;20161;-85
2022/03/28 06:53:07;;;;;;;24.37;12.60;;;;;;;10.87;54.84;100559.03;5052693;28;20522;-86
2022/03/28 06:55:33;;;;;;;26.50;11.80;;;;;;;10.96;54.79;100606.88;5052204;28;20634;-84
2022/03/28 06:57:58;;;;;;;23.30;11.23;;;;;;;10.76;55.04;100582.84;5053252;28;20672;-86
2022/03/28 07:00:24;;;;;;;24.00;11.33;;;;;;;11.03;54.49;100576.91;5052282;28;20603;-83
2022/03/28 07:02:49;;;;;;;24.83;11.70;;;;;;;10.61;53.58;100432.47;5052217;28;20191;-84
2022/03/28 07:05:15;;;;;;;25.37;11.97;;;;;;;11.00;52.41;100442.44;5051921;28;20630;-84
2022/03/28 07:07:46;;;;;;;21.70;11.27;;;;;;;10.23;51.64;100277.44;5034417;28;20169;-85
2022/03/28 07:10:13;;;;;;;23.93;12.50;;;;;;;12.00;51.34;100547.16;5052747;28;20463;-85
2022/03/28 07:12:39;;;;;;;23.13;12.57;;;;;;;11.37;51.08;100454.69;5042202;28;20161;-86
2022/03/28 07:15:06;;;;;;;22.10;11.50;;;;;;;10.97;50.58;100323.19;5067376;28;20169;-86
2022/03/28 07:17:57;;;;;;;22.37;12.13;;;;;;;11.67;50.71;100456.44;5056234;28;20725;-86
2022/03/28 07:20:27;;;;;;;31.33;12.17;;;;;;;12.46;50.06;100557.31;5053207;28;20157;-83
2022/03/28 07:22:54;;;;;;;22.73;12.50;;;;;;;12.51;50.24;100543.19;5053735;28;20665;-85
2022/03/28 07:25:21;;;;;;;27.83;12.53;;;;;;;12.66;49.96;100561.81;5035244;28;20176;-84
2022/03/28 07:27:47;;;;;;;23.33;12.03;;;;;;;12.47;50.58;100564.16;5040396;28;20197;-84
2022/03/28 07:30:14;;;;;;;32.07;15.87;;;;;;;12.69;49.98;100565.38;5031146;28;20174;-84
2022/03/28 07:32:40;;;;;;;34.43;16.60;;;;;;;12.40;49.27;100447.00;5024428;28;20205;-84
2022/03/28 07:35:08;;;;;;;29.77;15.73;;;;;;;12.51;48.81;100431.44;5035449;28;20210;-85
2022/03/28 07:37:34;;;;;;;35.17;18.47;;;;;;;13.63;48.30;100554.19;5033069;28;20178;-83
2022/03/28 07:40:00;;;;;;;36.30;13.20;;;;;;;10.89;47.41;100096.41;5037782;28;20548;-85
2022/03/28 07:42:26;;;;;;;27.90;12.90;;;;;;;13.16;47.80;100450.94;5042311;28;20193;-84
2022/03/28 07:44:56;;;;;;;23.57;12.43;;;;;;;11.40;48.17;100160.78;5040227;28;20170;-84
2022/03/28 07:47:26;;;;;;;29.10;13.17;;;;;;;13.55;48.19;100526.72;5004843;28;20233;-84
2022/03/28 07:49:55;;;;;;;23.57;12.63;;;;;;;14.13;46.94;100542.25;5032630;28;20162;-85
2022/03/28 07:52:21;;;;;;;26.50;13.60;;;;;;;14.12;46.44;100540.50;5032312;28;20158;-84
2022/03/28 07:54:48;;;;;;;25.13;13.00;;;;;;;13.89;47.14;100454.53;5030934;28;20173;-85
2022/03/28 07:57:14;;;;;;;24.50;12.53;;;;;;;14.75;45.77;100533.31;5030828;28;20170;-85
2022/03/28 07:59:48;;;;;;;25.00;13.20;;;;;;;13.84;47.93;100534.91;5033357;28;20292;-84
2022/03/28 08:02:15;;;;;;;26.93;13.33;;;;;;;12.62;47.75;100337.22;5051715;28;20182;-85
2022/03/28 08:04:43;;;;;;;28.87;13.50;;;;;;;13.72;48.04;100534.28;5054571;28;20165;-84
2022/03/28 08:07:09;;;;;;;23.07;12.50;;;;;;;12.86;48.52;100423.94;5038736;28;20239;-85
2022/03/28 08:09:41;;;;;;;27.90;14.00;;;;;;;11.69;47.82;100142.91;5032873;28;20714;-85
2022/03/28 08:12:07;;;;;;;29.60;13.30;;;;;;;13.11;46.65;100258.28;5032726;28;20201;-85
2022/03/28 08:14:33;;;;;;;20.77;12.57;;;;;;;15.11;45.23;100523.88;5031085;28;20166;-84
2022/03/28 08:17:00;;;;;;;26.43;13.77;;;;;;;14.27;44.44;100286.53;5031732;28;20214;-85
2022/03/28 08:19:25;;;;;;;29.37;13.97;;;;;;;15.44;43.53;100407.06;5047011;28;20580;-84
2022/03/28 08:21:51;;;;;;;25.97;13.40;;;;;;;15.13;42.86;100353.06;5034412;28;20185;-84
2022/03/28 08:24:17;;;;;;;37.00;17.10;;;;;;;13.16;43.62;100046.69;5052090;28;20193;-85
2022/03/28 08:26:42;;;;;;;24.07;13.37;;;;;;;14.68;43.03;100261.16;5052229;28;20160;-85
2022/03/28 08:29:08;;;;;;;23.17;12.70;;;;;;;14.74;42.43;100253.75;5023466;28;20178;-84
2022/03/28 08:31:33;;;;;;;30.00;13.00;;;;;;;15.30;43.03;100392.88;5031989;28;20241;-84
2022/03/28 08:33:59;;;;;;;21.90;12.97;;;;;;;15.54;43.89;100498.56;5032047;28;20172;-85
2022/03/28 08:36:25;;;;;;;54.03;24.37;;;;;;;14.70;43.52;100310.50;5031592;28;20166;-85
2022/03/28 08:38:50;;;;;;;23.63;12.83;;;;;;;14.01;43.13;100131.75;5031698;28;20176;-84
2022/03/28 08:41:18;;;;;;;21.73;12.70;;;;;;;13.97;43.22;100157.91;5053598;28;20255;-84
2022/03/28 08:43:44;;;;;;;26.00;13.50;;;;;;;15.35;42.83;100315.69;5071410;28;20218;-84
2022/03/28 08:46:10;;;;;;;23.73;13.53;;;;;;;14.93;43.57;100285.06;5061612;28;20173;-85
2022/03/28 08:48:39;;;;;;;21.73;12.70;;;;;;;15.55;43.05;100377.75;5070298;28;20166;-85
2022/03/28 08:51:04;;;;;;;35.37;16.07;;;;;;;14.87;43.39;100251.69;5068214;28;20220;-84
2022/03/28 08:53:30;;;;;;;29.67;14.97;;;;;;;13.95;43.10;100085.69;5063716;28;20157;-84
2022/03/28 08:55:56;;;;;;;52.67;20.00;;;;;;;14.76;41.70;100098.31;5053227;28;20169;-85
2022/03/28 08:58:21;;;;;;;33.47;15.60;;;;;;;16.04;41.03;100280.03;5051543;28;20173;-85
2022/03/28 09:00:47;;;;;;;23.13;13.40;;;;;;;17.44;40.65;100440.94;5051682;28;20203;-85
2022/03/28 09:03:12;;;;;;;28.00;15.03;;;;;;;16.11;40.88;100225.78;5051244;28;20201;-85
2022/03/28 09:05:39;;;;;;;38.20;16.50;;;;;;;16.39;39.56;100213.13;5051836;28;20174;-85
2022/03/28 09:08:08;;;;;;;22.07;13.10;;;;;;;17.75;39.63;100437.69;5051326;28;20177;-86
2022/03/28 09:10:34;;;;;;;24.10;13.10;;;;;;;16.78;41.06;100436.97;5051549;28;20193;-87
2022/03/28 09:13:00;;;;;;;26.33;13.20;;;;;;;17.39;40.32;100428.81;5055231;28;20632;-83
2022/03/28 09:15:26;;;;;;;23.00;13.43;;;;;;;15.65;39.66;100098.22;5036887;28;20174;-84
2022/03/28 09:17:58;;;;;;;28.50;14.23;;;;;;;17.59;40.28;100415.00;5054740;28;20304;-85
2022/03/28 09:20:25;;;;;;;24.10;13.30;;;;;;;17.41;39.75;100371.75;5054710;28;20180;-85
2022/03/28 09:22:50;;;;;;;30.33;14.40;;;;;;;16.99;39.91;100316.59;5054878;28;20189;-85
2022/03/28 09:25:19;;;;;;;62.97;25.43;;;;;;;16.55;40.08;100235.88;5054806;28;20161;-84
2022/03/28 09:27:45;;;;;;;70.33;28.23;;;;;;;17.41;40.03;100387.09;5054781;28;20629;-84
2022/03/28 09:30:18;;;;;;;24.43;13.10;;;;;;;17.65;39.73;100400.72;5054773;28;20180;-83
2022/03/28 09:32:51;;;;;;;38.90;19.33;;;;;;;16.03;39.04;100028.84;5055122;28;20190;-84
2022/03/28 09:35:20;;;;;;;25.03;14.20;;;;;;;18.70;37.59;100391.00;5055402;28;20157;-86
2022/03/28 09:38:18;;;;;;;22.00;12.93;;;;;;;18.68;38.26;100397.75;5066716;28;20157;-86
2022/03/28 09:40:52;;;;;;;25.10;13.87;;;;;;;18.80;37.67;100393.84;4980029;28;20589;-84
2022/03/28 09:43:29;;;;;;;26.73;13.47;;;;;;;18.46;38.17;100347.53;4976755;28;20192;-85
2022/03/28 09:45:57;;;;;;;29.50;15.03;;;;;;;18.10;38.96;100385.84;4967166;28;20198;-86
2022/03/28 09:48:28;;;;;;;23.77;13.70;;;;;;;16.72;39.33;100122.22;4963668;28;20239;-85
2022/03/28 09:51:05;;;;;;;24.20;13.40;;;;;;;17.38;39.35;100276.03;4955076;29;20788;-85
2022/03/28 09:53:35;;;;;;;21.30;13.60;;;;;;;16.05;40.71;100172.78;4956422;29;20164;-85
2022/03/28 09:56:02;;;;;;;27.80;13.60;;;;;;;17.80;39.88;100378.94;4964904;29;20173;-85
2022/03/28 09:59:04;;;;;;;21.77;13.30;;;;;;;18.19;38.99;100349.34;4955421;28;20279;-85
2022/03/28 10:01:40;;;;;;;19.67;12.43;;;;;;;17.81;39.74;100348.25;4882507;29;20237;-86
2022/03/28 10:04:08;;;;;;;22.07;13.27;;;;;;;16.89;40.03;100236.13;4897152;29;20233;-87
2022/03/28 10:06:38;;;;;;;24.77;12.77;;;;;;;17.53;39.67;100259.47;4898048;29;20195;-84
2022/03/28 10:09:07;;;;;;;24.03;12.70;;;;;;;17.53;38.44;100187.78;4896756;29;20270;-87
2022/03/28 10:11:34;;;;;;;27.63;15.43;;;;;;;18.09;37.77;100198.72;4896783;29;20209;-85
2022/03/28 10:14:00;;;;;;;24.00;13.00;;;;;;;18.42;37.36;100247.44;4898603;29;20578;-84
2022/03/28 10:16:26;;;;;;;21.67;12.20;;;;;;;18.32;38.24;100299.31;4905142;28;20198;-84
2022/03/28 10:18:52;;;;;;;22.83;12.97;;;;;;;18.41;38.74;100343.13;4972460;28;20226;-86
2022/03/28 10:21:27;;;;;;;25.03;13.23;;;;;;;18.80;37.71;100326.25;4972638;28;20584;-84
2022/03/28 10:23:55;;;;;;;25.67;12.63;;;;;;;18.68;38.04;100323.38;4975335;28;21144;-84
2022/03/28 10:26:27;;;;;;;23.30;13.23;;;;;;;19.15;37.51;100315.16;4966452;28;20692;-83
2022/03/28 10:29:19;;;;;;;24.83;13.43;;;;;;;17.36;36.75;99955.19;4983332;28;20568;-84
2022/03/28 10:32:03;;;;;;;19.60;12.63;;;;;;;18.63;36.17;100092.41;4990099;28;20206;-84
2022/03/28 10:34:43;;;;;;;21.10;12.30;;;;;;;20.13;35.57;100300.22;4992634;28;20754;-85
2022/03/28 10:37:24;;;;;;;19.57;12.47;;;;;;;19.52;36.20;100292.94;4977504;28;20183;-84
2022/03/28 10:39:50;;;;;;;20.73;12.00;;;;;;;18.78;36.76;100207.34;5016944;28;20243;-86
2022/03/28 10:42:36;;;;;;;21.60;12.23;;;;;;;17.25;37.03;99949.75;5036539;28;20197;-85
2022/03/28 10:45:08;;;;;;;25.90;13.03;;;;;;;17.68;37.04;100033.69;5058540;28;20169;-85
2022/03/28 10:47:53;;;;;;;25.20;13.47;;;;;;;19.27;37.20;100269.25;5073540;28;20177;-85
2022/03/28 10:50:32;;;;;;;24.53;12.93;;;;;;;19.23;36.50;100228.91;5024504;28;20268;-83
2022/03/28 10:53:13;;;;;;;22.03;13.07;;;;;;;18.48;36.98;100145.94;5053039;28;20165;-84
2022/03/28 10:55:41;;;;;;;25.20;12.67;;;;;;;19.09;37.19;100250.84;5052987;28;20157;-86
2022/03/28 10:58:31;;;;;;;24.83;12.73;;;;;;;19.12;37.18;100240.63;5053042;28;20172;-85
2022/03/28 11:01:08;;;;;;;22.70;12.60;;;;;;;18.82;37.78;100238.22;4951332;28;20193;-85
2022/03/28 11:03:47;;;;;;;20.77;13.20;;;;;;;19.05;37.58;100225.94;4953491;29;20642;-85
2022/03/28 11:06:15;;;;;;;22.30;12.73;;;;;;;19.40;37.06;100235.31;4952977;28;20196;-85
2022/03/28 11:08:45;;;;;;;22.30;13.53;;;;;;;19.71;36.49;100225.69;4953367;29;20203;-85
2022/03/28 11:11:22;;;;;;;24.43;13.07;;;;;;;17.99;37.07;100020.78;4954132;28;20177;-84
2022/03/28 11:13:59;;;;;;;21.93;13.37;;;;;;;19.03;37.65;100214.78;4965016;29;20223;-85
2022/03/28 11:16:43;;;;;;;20.87;12.30;;;;;;;18.94;37.71;100216.25;4967805;29;20219;-85
2022/03/28 11:19:30;;;;;;;25.60;13.03;;;;;;;19.12;37.08;100207.25;4937129;29;20566;-84